createdAt,value
2023-02-07T00:00:16.038Z,21.70
2023-02-07T00:01:16.025Z,22.00
2023-02-07T00:02:16.083Z,22.10
2023-02-07T00:03:16.024Z,20.80
2023-02-07T00:04:16.022Z,21.30
2023-02-07T00:05:15.994Z,21.20
2023-02-07T00:06:16.002Z,22.20
2023-02-07T00:07:16.022Z,22.40
2023-02-07T00:08:16.086Z,22.20
2023-02-07T00:09:16.003Z,22.00
2023-02-07T00:10:15.938Z,22.30
2023-02-07T00:11:15.954Z,22.10
2023-02-07T00:12:15.898Z,22.20
2023-02-07T00:13:15.889Z,22.70
2023-02-07T00:14:15.888Z,21.70
2023-02-07T00:15:15.902Z,23.00
2023-02-07T00:16:15.887Z,22.60
2023-02-07T00:17:15.848Z,22.90
2023-02-07T00:18:15.838Z,21.50
2023-02-07T00:19:15.848Z,22.20
2023-02-07T00:20:15.826Z,22.90
2023-02-07T00:21:15.806Z,21.90
2023-02-07T00:22:15.793Z,22.10
2023-02-07T00:23:15.777Z,21.20
2023-02-07T00:24:15.797Z,21.60
2023-02-07T00:25:15.819Z,23.10
2023-02-07T00:26:15.768Z,21.80
2023-02-07T00:27:15.747Z,22.50
2023-02-07T00:28:15.807Z,22.30
2023-02-07T00:29:15.740Z,21.90
2023-02-07T00:30:15.734Z,21.80
2023-02-07T00:31:15.885Z,22.60
2023-02-07T00:32:15.686Z,22.80
2023-02-07T00:33:15.690Z,22.50
2023-02-07T00:34:15.669Z,22.20
2023-02-07T00:35:15.675Z,21.70
2023-02-07T00:36:15.647Z,21.50
2023-02-07T00:37:15.647Z,21.80
2023-02-07T00:38:15.625Z,23.00
2023-02-07T00:39:15.630Z,23.90
2023-02-07T00:40:15.650Z,22.80
2023-02-07T00:41:15.705Z,22.40
2023-02-07T00:42:15.682Z,23.40
2023-02-07T00:43:28.160Z,22.50
2023-02-07T00:44:16.594Z,22.80
2023-02-07T00:45:15.571Z,22.60
2023-02-07T00:46:15.577Z,22.50
2023-02-07T00:47:15.541Z,22.60
2023-02-07T00:48:15.527Z,22.70
2023-02-07T00:49:15.508Z,22.70
2023-02-07T00:50:15.521Z,22.10
2023-02-07T00:51:15.495Z,23.20
2023-02-07T00:52:15.553Z,24.60
2023-02-07T00:53:15.540Z,23.20
2023-02-07T00:54:15.459Z,24.10
2023-02-07T00:55:15.559Z,23.20
2023-02-07T00:56:15.475Z,23.20
2023-02-07T00:57:15.607Z,23.10
2023-02-07T00:58:15.411Z,23.80
2023-02-07T00:59:15.411Z,23.70
2023-02-07T01:00:15.419Z,24.20
2023-02-07T01:01:15.472Z,25.70
2023-02-07T01:02:15.400Z,24.30
2023-02-07T01:03:15.395Z,24.80
2023-02-07T01:04:15.438Z,23.60
2023-02-07T01:05:15.361Z,24.10
2023-02-07T01:06:15.464Z,24.90
2023-02-07T01:07:15.342Z,25.00
2023-02-07T01:08:15.331Z,25.50
2023-02-07T01:09:15.305Z,25.50
2023-02-07T01:10:15.286Z,25.20
2023-02-07T01:11:15.358Z,24.90
2023-02-07T01:12:15.280Z,25.00
2023-02-07T01:13:15.298Z,24.70
2023-02-07T01:14:15.257Z,25.20
2023-02-07T01:15:15.239Z,25.00
2023-02-07T01:16:15.282Z,24.90
2023-02-07T01:17:15.252Z,24.90
2023-02-07T01:18:15.206Z,25.20
2023-02-07T01:19:15.203Z,25.70
2023-02-07T01:20:15.235Z,26.00
2023-02-07T01:21:15.274Z,26.10
2023-02-07T01:22:15.194Z,26.70
2023-02-07T01:23:15.237Z,26.80
2023-02-07T01:24:15.266Z,27.40
2023-02-07T01:25:15.184Z,27.00
2023-02-07T01:26:15.175Z,26.70
2023-02-07T01:27:15.110Z,25.30
2023-02-07T01:28:15.196Z,28.50
2023-02-07T01:29:15.086Z,26.70
2023-02-07T01:30:15.088Z,27.10
2023-02-07T01:31:15.131Z,28.60
2023-02-07T01:32:15.058Z,26.90
2023-02-07T01:33:15.100Z,26.00
2023-02-07T01:34:15.046Z,28.40
2023-02-07T01:35:15.105Z,27.70
2023-02-07T01:36:15.043Z,27.60
2023-02-07T01:37:15.024Z,26.20
2023-02-07T01:38:15.029Z,28.20
2023-02-07T01:39:14.978Z,26.90
2023-02-07T01:40:14.985Z,27.10
2023-02-07T01:41:14.956Z,28.40
2023-02-07T01:42:14.945Z,26.40
2023-02-07T01:43:14.956Z,29.20
2023-02-07T01:44:14.971Z,28.70
2023-02-07T01:45:14.919Z,28.60
2023-02-07T01:46:14.948Z,27.70
2023-02-07T01:47:14.894Z,28.70
2023-02-07T01:48:14.945Z,27.70
2023-02-07T01:49:14.908Z,26.90
2023-02-07T01:50:14.862Z,26.60
2023-02-07T01:51:14.881Z,27.40
2023-02-07T01:52:14.841Z,27.50
2023-02-07T01:53:14.859Z,26.90
2023-02-07T01:54:14.850Z,26.80
2023-02-07T01:55:14.842Z,26.20
2023-02-07T01:56:29.505Z,27.20
2023-02-07T01:57:15.837Z,27.90
2023-02-07T01:58:14.785Z,27.50
2023-02-07T01:59:14.761Z,26.20
2023-02-07T02:00:14.769Z,28.30
2023-02-07T02:01:14.759Z,27.00
2023-02-07T02:02:14.761Z,28.60
2023-02-07T02:03:14.724Z,28.00
2023-02-07T02:04:14.711Z,29.70
2023-02-07T02:05:14.714Z,28.80
2023-02-07T02:06:14.709Z,27.90
2023-02-07T02:07:14.719Z,29.00
2023-02-07T02:08:14.710Z,27.80
2023-02-07T02:09:14.666Z,28.90
2023-02-07T02:10:14.659Z,27.60
2023-02-07T02:11:14.647Z,27.50
2023-02-07T02:12:14.633Z,28.30
2023-02-07T02:13:14.637Z,27.10
2023-02-07T02:14:14.615Z,27.60
2023-02-07T02:15:14.638Z,25.30
2023-02-07T02:16:14.657Z,25.70
2023-02-07T02:17:14.580Z,26.50
2023-02-07T02:18:14.611Z,25.00
2023-02-07T02:19:14.573Z,26.20
2023-02-07T02:20:14.594Z,26.70
2023-02-07T02:21:14.564Z,27.90
2023-02-07T02:22:14.529Z,27.70
2023-02-07T02:23:14.541Z,26.90
2023-02-07T02:24:14.589Z,27.30
2023-02-07T02:25:14.500Z,28.10
2023-02-07T02:26:14.518Z,28.30
2023-02-07T02:27:14.465Z,26.20
2023-02-07T02:28:14.527Z,26.40
2023-02-07T02:29:14.445Z,27.10
2023-02-07T02:30:14.445Z,27.10
2023-02-07T02:31:14.468Z,27.90
2023-02-07T02:32:14.497Z,28.00
2023-02-07T02:33:14.410Z,28.80
2023-02-07T02:34:14.414Z,28.40
2023-02-07T02:35:14.393Z,28.50
2023-02-07T02:36:14.393Z,28.00
2023-02-07T02:37:14.388Z,28.20
2023-02-07T02:38:14.365Z,27.90
2023-02-07T02:39:14.343Z,27.60
2023-02-07T02:40:14.331Z,26.90
2023-02-07T02:41:14.321Z,25.10
2023-02-07T02:42:14.352Z,28.20
2023-02-07T02:43:14.324Z,28.10
2023-02-07T02:44:14.351Z,28.50
2023-02-07T02:45:14.328Z,27.00
2023-02-07T02:46:14.316Z,28.50
2023-02-07T02:47:14.275Z,28.00
2023-02-07T02:48:14.244Z,27.90
2023-02-07T02:49:14.242Z,28.60
2023-02-07T02:50:14.233Z,29.30
2023-02-07T02:51:14.235Z,30.60
2023-02-07T02:52:14.238Z,29.60
2023-02-07T02:53:14.217Z,28.00
2023-02-07T02:54:14.248Z,28.10
2023-02-07T02:55:14.183Z,28.10
2023-02-07T02:56:14.183Z,27.90
2023-02-07T02:57:14.163Z,27.70
2023-02-07T02:58:14.160Z,28.30
2023-02-07T02:59:14.135Z,29.70
2023-02-07T03:00:14.114Z,30.30
2023-02-07T03:01:14.115Z,30.20
2023-02-07T03:02:14.123Z,30.10
2023-02-07T03:03:14.085Z,30.10
2023-02-07T03:04:14.118Z,31.80
2023-02-07T03:05:14.103Z,30.40
2023-02-07T03:06:14.065Z,30.30
2023-02-07T03:07:14.055Z,30.70
2023-02-07T03:08:14.032Z,30.90
2023-02-07T03:09:14.038Z,30.80
2023-02-07T03:10:14.046Z,31.30
2023-02-07T03:11:14.019Z,31.20
2023-02-07T03:12:14.026Z,31.50
2023-02-07T03:13:13.982Z,31.40
2023-02-07T03:14:13.975Z,31.00
2023-02-07T03:15:13.990Z,32.70
2023-02-07T03:16:13.991Z,30.90
2023-02-07T03:17:13.951Z,30.90
2023-02-07T03:18:13.951Z,31.90
2023-02-07T03:19:13.941Z,29.80
2023-02-07T03:20:13.956Z,28.30
2023-02-07T03:21:13.929Z,30.60
2023-02-07T03:22:13.888Z,30.00
2023-02-07T03:23:13.882Z,30.10
2023-02-07T03:24:13.867Z,29.20
2023-02-07T03:25:13.946Z,29.30
2023-02-07T03:26:13.868Z,28.70
2023-02-07T03:27:13.826Z,28.90
2023-02-07T03:28:13.845Z,29.70
2023-02-07T03:29:13.815Z,30.40
2023-02-07T03:30:13.823Z,29.60
2023-02-07T03:31:13.841Z,29.10
2023-02-07T03:32:13.787Z,29.40
2023-02-07T03:33:13.771Z,31.80
2023-02-07T03:34:13.760Z,31.40
2023-02-07T03:35:13.774Z,29.80
2023-02-07T03:36:13.737Z,29.60
2023-02-07T03:37:13.728Z,29.30
2023-02-07T03:38:13.731Z,27.60
2023-02-07T03:39:13.714Z,26.90
2023-02-07T03:40:13.962Z,30.00
2023-02-07T03:41:13.762Z,28.90
2023-02-07T03:42:13.781Z,27.60
2023-02-07T03:43:13.661Z,27.00
2023-02-07T03:44:13.730Z,28.40
2023-02-07T03:45:13.651Z,27.80
2023-02-07T03:46:13.689Z,28.50
2023-02-07T03:47:13.614Z,27.60
2023-02-07T03:48:13.659Z,28.40
2023-02-07T03:49:13.651Z,27.40
2023-02-07T03:50:13.677Z,27.80
2023-02-07T03:51:13.588Z,28.60
2023-02-07T03:52:13.570Z,27.40
2023-02-07T03:53:13.575Z,28.10
2023-02-07T03:54:13.574Z,27.00
2023-02-07T03:55:13.562Z,27.80
2023-02-07T03:56:13.527Z,27.60
2023-02-07T03:57:13.510Z,28.40
2023-02-07T03:58:13.510Z,29.60
2023-02-07T03:59:13.501Z,29.00
2023-02-07T04:00:13.481Z,28.40
2023-02-07T04:01:13.501Z,27.50
2023-02-07T04:02:13.494Z,29.20
2023-02-07T04:03:13.463Z,28.70
2023-02-07T04:04:13.451Z,29.10
2023-02-07T04:05:13.433Z,29.50
2023-02-07T04:06:13.447Z,29.90
2023-02-07T04:07:13.416Z,29.10
2023-02-07T04:08:13.397Z,30.30
2023-02-07T04:09:13.411Z,30.20
2023-02-07T04:10:13.471Z,29.70
2023-02-07T04:11:13.386Z,28.60
2023-02-07T04:12:13.418Z,28.50
2023-02-07T04:13:13.361Z,28.40
2023-02-07T04:14:13.369Z,27.70
2023-02-07T04:15:13.378Z,29.40
2023-02-07T04:16:13.348Z,29.70
2023-02-07T04:17:13.303Z,28.60
2023-02-07T04:18:13.287Z,27.50
2023-02-07T04:19:13.282Z,29.80
2023-02-07T04:20:13.306Z,29.90
2023-02-07T04:21:13.267Z,27.80
2023-02-07T04:22:13.248Z,28.80
2023-02-07T04:23:13.227Z,27.10
2023-02-07T04:24:13.220Z,27.60
2023-02-07T04:25:13.215Z,28.90
2023-02-07T04:26:13.273Z,28.60
2023-02-07T04:27:13.200Z,29.00
2023-02-07T04:28:13.215Z,28.50
2023-02-07T04:29:13.174Z,29.20
2023-02-07T04:30:13.172Z,29.20
2023-02-07T04:31:13.189Z,28.40
2023-02-07T04:32:13.149Z,28.00
2023-02-07T04:33:13.139Z,27.40
2023-02-07T04:34:13.148Z,26.10
2023-02-07T04:35:13.101Z,26.20
2023-02-07T04:36:13.097Z,26.10
2023-02-07T04:37:13.101Z,26.50
2023-02-07T04:38:13.076Z,26.00
2023-02-07T04:39:13.054Z,25.70
2023-02-07T04:40:13.119Z,23.70
2023-02-07T04:41:13.067Z,24.30
2023-02-07T04:42:13.045Z,24.70
2023-02-07T04:43:13.022Z,26.30
2023-02-07T04:44:13.012Z,25.80
2023-02-07T04:45:13.002Z,25.30
2023-02-07T04:46:13.035Z,26.40
2023-02-07T04:47:12.992Z,25.60
2023-02-07T04:48:13.031Z,26.70
2023-02-07T04:49:12.989Z,28.70
2023-02-07T04:50:12.962Z,28.90
2023-02-07T04:51:12.959Z,29.50
2023-02-07T04:52:12.926Z,28.60
2023-02-07T04:53:13.001Z,28.60
2023-02-07T04:54:12.931Z,28.70
2023-02-07T04:55:12.885Z,30.40
2023-02-07T04:56:12.902Z,29.60
2023-02-07T04:57:12.884Z,27.40
2023-02-07T04:58:12.868Z,28.30
2023-02-07T04:59:12.865Z,27.40
2023-02-07T05:00:12.850Z,27.00
2023-02-07T05:01:12.875Z,27.20
2023-02-07T05:02:12.884Z,26.50
2023-02-07T05:03:12.896Z,25.70
2023-02-07T05:04:12.835Z,24.10
2023-02-07T05:05:12.777Z,25.10
2023-02-07T05:06:12.798Z,26.90
2023-02-07T05:07:12.774Z,26.50
2023-02-07T05:08:12.773Z,28.40
2023-02-07T05:09:12.742Z,26.40
2023-02-07T05:10:12.766Z,27.10
2023-02-07T05:11:12.719Z,28.10
2023-02-07T05:12:12.748Z,26.30
2023-02-07T05:13:12.719Z,26.10
2023-02-07T05:14:12.804Z,25.20
2023-02-07T05:15:12.711Z,25.10
2023-02-07T05:16:12.690Z,25.80
2023-02-07T05:17:12.678Z,26.60
2023-02-07T05:18:12.665Z,26.40
2023-02-07T05:19:13.250Z,27.00
2023-02-07T05:20:12.695Z,26.50
2023-02-07T05:21:12.639Z,28.30
2023-02-07T05:22:12.676Z,28.50
2023-02-07T05:23:12.598Z,28.30
2023-02-07T05:24:12.592Z,27.80
2023-02-07T05:25:12.616Z,27.60
2023-02-07T05:26:12.573Z,28.40
2023-02-07T05:27:12.598Z,28.40
2023-02-07T05:28:12.592Z,26.80
2023-02-07T05:29:12.654Z,27.00
2023-02-07T05:30:12.573Z,26.60
2023-02-07T05:31:12.634Z,27.70
2023-02-07T05:32:12.565Z,26.80
2023-02-07T05:33:12.548Z,27.80
2023-02-07T05:34:12.480Z,27.30
2023-02-07T05:35:12.493Z,28.10
2023-02-07T05:36:12.466Z,25.70
2023-02-07T05:37:12.470Z,27.60
2023-02-07T05:38:12.437Z,26.40
2023-02-07T05:39:12.422Z,26.60
2023-02-07T05:40:12.410Z,26.30
2023-02-07T05:41:12.420Z,25.70
2023-02-07T05:42:12.390Z,25.80
2023-02-07T05:43:12.410Z,25.40
2023-02-07T05:44:12.384Z,26.70
2023-02-07T05:45:12.375Z,28.40
2023-02-07T05:46:12.362Z,27.60
2023-02-07T05:47:12.390Z,26.90
2023-02-07T05:48:12.345Z,27.90
2023-02-07T05:49:12.443Z,27.60
2023-02-07T05:50:12.300Z,28.60
2023-02-07T05:51:12.299Z,28.20
2023-02-07T05:52:12.280Z,26.60
2023-02-07T05:53:12.289Z,27.60
2023-02-07T05:54:12.289Z,29.20
2023-02-07T05:55:12.345Z,28.30
2023-02-07T05:56:12.247Z,27.50
2023-02-07T05:57:12.230Z,26.40
2023-02-07T05:58:12.234Z,26.80
2023-02-07T05:59:12.238Z,28.10
2023-02-07T06:00:12.207Z,28.20
2023-02-07T06:01:12.189Z,27.10
2023-02-07T06:02:12.222Z,25.60
2023-02-07T06:03:12.236Z,26.60
2023-02-07T06:04:12.155Z,24.80
2023-02-07T06:05:21.515Z,25.00
2023-02-07T06:06:13.345Z,25.10
2023-02-07T06:07:12.395Z,24.40
2023-02-07T06:08:12.440Z,26.20
2023-02-07T06:09:12.222Z,25.70
2023-02-07T06:10:12.346Z,25.30
2023-02-07T06:11:12.432Z,25.00
2023-02-07T06:12:12.140Z,26.20
2023-02-07T06:13:12.268Z,25.30
2023-02-07T06:14:12.110Z,24.70
2023-02-07T06:15:12.181Z,26.10
2023-02-07T06:16:12.173Z,26.00
2023-02-07T06:17:12.141Z,26.00
2023-02-07T06:18:12.143Z,28.10
2023-02-07T06:19:12.081Z,29.10
2023-02-07T06:20:12.168Z,25.80
2023-02-07T06:21:12.303Z,26.00
2023-02-07T06:22:12.038Z,24.70
2023-02-07T06:23:12.089Z,27.20
2023-02-07T06:24:12.117Z,27.00
2023-02-07T06:25:12.630Z,25.30
2023-02-07T06:26:12.221Z,25.10
2023-02-07T06:27:12.060Z,24.70
2023-02-07T06:28:12.006Z,25.00
2023-02-07T06:29:19.678Z,25.80
2023-02-07T06:30:11.883Z,26.90
2023-02-07T06:31:11.919Z,27.60
2023-02-07T06:32:11.858Z,28.10
2023-02-07T06:33:11.843Z,25.10
2023-02-07T06:34:11.835Z,25.90
2023-02-07T06:35:11.839Z,25.90
2023-02-07T06:36:11.807Z,26.10
2023-02-07T06:37:11.800Z,27.40
2023-02-07T06:38:11.792Z,27.40
2023-02-07T06:39:11.774Z,27.00
2023-02-07T06:40:11.795Z,26.20
2023-02-07T06:41:11.758Z,25.40
2023-02-07T06:42:11.745Z,28.30
2023-02-07T06:43:11.732Z,27.80
2023-02-07T06:44:11.722Z,27.70
2023-02-07T06:45:11.728Z,27.60
2023-02-07T06:46:11.757Z,27.50
2023-02-07T06:47:11.703Z,28.70
2023-02-07T06:48:11.684Z,29.60
2023-02-07T06:49:11.677Z,28.60
2023-02-07T06:50:11.691Z,27.20
2023-02-07T06:51:11.655Z,28.30
2023-02-07T06:52:11.640Z,27.30
2023-02-07T06:53:11.625Z,27.60
2023-02-07T06:54:11.622Z,27.80
2023-02-07T06:55:11.625Z,27.00
2023-02-07T06:56:11.614Z,24.60
2023-02-07T06:57:11.585Z,25.90
2023-02-07T06:58:11.593Z,25.90
2023-02-07T06:59:11.576Z,25.20
2023-02-07T07:00:11.567Z,25.70
2023-02-07T07:01:11.574Z,25.60
2023-02-07T07:02:11.552Z,26.40
2023-02-07T07:03:11.529Z,26.40
2023-02-07T07:04:11.530Z,26.50
2023-02-07T07:05:11.504Z,27.80
2023-02-07T07:06:11.539Z,28.60
2023-02-07T07:07:11.507Z,28.90
2023-02-07T07:08:11.512Z,29.80
2023-02-07T07:09:11.502Z,30.50
2023-02-07T07:10:11.525Z,29.30
2023-02-07T07:11:11.450Z,30.90
2023-02-07T07:12:11.473Z,30.80
2023-02-07T07:13:11.426Z,30.50
2023-02-07T07:14:11.412Z,30.80
2023-02-07T07:15:11.401Z,30.30
2023-02-07T07:16:11.439Z,31.50
2023-02-07T07:17:11.492Z,31.50
2023-02-07T07:18:11.447Z,31.50
2023-02-07T07:19:11.352Z,31.90
2023-02-07T07:20:11.347Z,31.60
2023-02-07T07:21:11.430Z,32.60
2023-02-07T07:22:11.331Z,31.40
2023-02-07T07:23:11.441Z,32.10
2023-02-07T07:24:11.373Z,32.00
2023-02-07T07:25:11.296Z,32.00
2023-02-07T07:26:11.306Z,31.10
2023-02-07T07:27:11.276Z,32.10
2023-02-07T07:28:11.292Z,33.00
2023-02-07T07:29:11.290Z,33.90
2023-02-07T07:30:11.235Z,31.50
2023-02-07T07:31:11.290Z,33.30
2023-02-07T07:32:11.744Z,33.90
2023-02-07T07:33:11.260Z,33.60
2023-02-07T07:34:11.193Z,32.80
2023-02-07T07:35:11.182Z,34.20
2023-02-07T07:36:11.174Z,34.00
2023-02-07T07:37:11.156Z,30.60
2023-02-07T07:38:11.159Z,36.90
2023-02-07T07:39:11.146Z,38.90
2023-02-07T07:40:11.125Z,35.60
2023-02-07T07:41:11.130Z,32.40
2023-02-07T07:42:11.105Z,35.40
2023-02-07T07:43:11.088Z,33.30
2023-02-07T07:44:11.100Z,33.60
2023-02-07T07:45:11.092Z,33.70
2023-02-07T07:46:11.065Z,32.10
2023-02-07T07:47:11.047Z,33.00
2023-02-07T07:48:11.048Z,31.50
2023-02-07T07:49:11.043Z,30.40
2023-02-07T07:50:11.048Z,32.20
2023-02-07T07:51:11.009Z,30.80
2023-02-07T07:52:10.992Z,30.20
2023-02-07T07:53:11.002Z,29.60
2023-02-07T07:54:10.990Z,30.30
2023-02-07T07:55:10.978Z,32.20
2023-02-07T07:56:10.959Z,30.30
2023-02-07T07:57:10.946Z,32.40
2023-02-07T07:58:10.933Z,32.40
2023-02-07T07:59:20.053Z,30.80
2023-02-07T08:00:11.914Z,33.50
2023-02-07T08:01:10.932Z,34.40
2023-02-07T08:02:10.904Z,33.50
2023-02-07T08:03:10.873Z,32.90
2023-02-07T08:04:10.934Z,32.50
2023-02-07T08:05:13.426Z,33.70
2023-02-07T08:06:10.861Z,33.90
2023-02-07T08:07:10.836Z,33.10
2023-02-07T08:08:10.838Z,33.50
2023-02-07T08:09:10.814Z,35.40
2023-02-07T08:10:10.884Z,35.50
2023-02-07T08:11:10.849Z,34.50
2023-02-07T08:12:10.787Z,35.30
2023-02-07T08:13:10.885Z,35.20
2023-02-07T08:14:10.804Z,35.90
2023-02-07T08:15:10.799Z,35.10
2023-02-07T08:16:10.821Z,35.80
2023-02-07T08:17:10.736Z,33.60
2023-02-07T08:18:10.846Z,32.50
2023-02-07T08:19:10.810Z,32.60
2023-02-07T08:20:10.747Z,35.60
2023-02-07T08:21:10.704Z,34.00
2023-02-07T08:22:10.716Z,33.50
2023-02-07T08:23:10.681Z,33.30
2023-02-07T08:24:10.676Z,34.40
2023-02-07T08:25:10.644Z,33.20
2023-02-07T08:26:10.649Z,31.50
2023-02-07T08:27:10.628Z,31.50
2023-02-07T08:28:10.653Z,31.70
2023-02-07T08:29:10.607Z,32.90
2023-02-07T08:30:10.612Z,32.00
2023-02-07T08:31:10.619Z,32.40
2023-02-07T08:32:10.663Z,34.90
2023-02-07T08:33:10.555Z,32.40
2023-02-07T08:34:10.550Z,33.60
2023-02-07T08:35:10.578Z,35.30
2023-02-07T08:36:10.549Z,34.40
2023-02-07T08:37:10.531Z,32.50
2023-02-07T08:38:10.501Z,32.40
2023-02-07T08:39:10.510Z,34.90
2023-02-07T08:40:10.510Z,34.30
2023-02-07T08:41:10.483Z,34.00
2023-02-07T08:42:10.460Z,33.80
2023-02-07T08:43:10.441Z,33.50
2023-02-07T08:44:10.458Z,33.80
2023-02-07T08:45:10.473Z,32.60
2023-02-07T08:46:10.593Z,34.60
2023-02-07T08:47:10.425Z,31.70
2023-02-07T08:48:10.485Z,32.50
2023-02-07T08:49:10.401Z,33.90
2023-02-07T08:50:10.379Z,33.80
2023-02-07T08:51:10.400Z,32.20
2023-02-07T08:52:10.358Z,34.60
2023-02-07T08:53:10.354Z,34.80
2023-02-07T08:54:10.339Z,34.50
2023-02-07T08:55:10.327Z,33.20
2023-02-07T08:56:10.327Z,35.00
2023-02-07T08:57:10.309Z,34.20
2023-02-07T08:58:10.308Z,33.60
2023-02-07T08:59:10.286Z,33.20
2023-02-07T09:00:10.271Z,33.90
2023-02-07T09:01:10.321Z,33.60
2023-02-07T09:02:10.304Z,33.60
2023-02-07T09:03:10.239Z,34.70
2023-02-07T09:04:10.222Z,34.00
2023-02-07T09:05:10.227Z,34.40
2023-02-07T09:06:10.210Z,34.60
2023-02-07T09:07:10.224Z,35.40
2023-02-07T09:08:10.187Z,33.80
2023-02-07T09:09:10.175Z,34.00
2023-02-07T09:10:10.201Z,34.50
2023-02-07T09:11:10.192Z,34.10
2023-02-07T09:12:10.147Z,38.40
2023-02-07T09:13:10.136Z,38.40
2023-02-07T09:14:10.147Z,35.20
2023-02-07T09:15:10.113Z,34.10
2023-02-07T09:16:10.104Z,33.90
2023-02-07T09:17:10.108Z,33.30
2023-02-07T09:18:10.074Z,32.90
2023-02-07T09:19:10.066Z,34.30
2023-02-07T09:20:10.074Z,35.00
2023-02-07T09:21:10.050Z,35.10
2023-02-07T09:22:10.039Z,37.00
2023-02-07T09:23:10.032Z,33.20
2023-02-07T09:24:10.030Z,33.70
2023-02-07T09:25:10.025Z,31.20
2023-02-07T09:26:09.994Z,31.40
2023-02-07T09:27:09.989Z,33.20
2023-02-07T09:28:10.027Z,32.40
2023-02-07T09:29:09.965Z,31.80
2023-02-07T09:30:09.974Z,32.60
2023-02-07T09:31:10.129Z,33.70
2023-02-07T09:32:09.937Z,34.00
2023-02-07T09:33:09.927Z,39.90
2023-02-07T09:34:09.917Z,37.40
2023-02-07T09:35:09.920Z,38.00
2023-02-07T09:36:09.897Z,38.20
2023-02-07T09:37:09.879Z,38.60
2023-02-07T09:38:09.876Z,37.00
2023-02-07T09:39:09.879Z,36.10
2023-02-07T09:40:09.907Z,35.40
2023-02-07T09:41:09.876Z,36.70
2023-02-07T09:42:09.889Z,36.90
2023-02-07T09:43:10.025Z,36.90
2023-02-07T09:44:10.016Z,37.60
2023-02-07T09:45:09.935Z,36.70
2023-02-07T09:46:10.779Z,37.80
2023-02-07T09:47:09.805Z,37.10
2023-02-07T09:48:11.069Z,37.90
2023-02-07T09:49:09.774Z,37.20
2023-02-07T09:50:09.772Z,36.80
2023-02-07T09:51:09.743Z,36.50
2023-02-07T09:52:09.812Z,35.90
2023-02-07T09:53:09.744Z,35.30
2023-02-07T09:54:09.747Z,34.60
2023-02-07T09:55:09.723Z,35.30
2023-02-07T09:56:09.741Z,37.30
2023-02-07T09:57:09.672Z,35.90
2023-02-07T09:58:09.762Z,34.30
2023-02-07T09:59:09.658Z,36.10
2023-02-07T10:00:09.642Z,35.30
2023-02-07T10:01:09.743Z,36.20
2023-02-07T10:02:09.649Z,35.80
2023-02-07T10:03:09.620Z,35.10
2023-02-07T10:04:09.598Z,35.30
2023-02-07T10:05:09.602Z,34.40
2023-02-07T10:06:18.444Z,34.70
2023-02-07T10:07:10.580Z,34.20
2023-02-07T10:08:09.580Z,35.40
2023-02-07T10:09:09.579Z,33.70
2023-02-07T10:10:09.561Z,32.20
2023-02-07T10:11:10.085Z,33.00
2023-02-07T10:12:09.522Z,33.40
2023-02-07T10:13:09.775Z,34.10
2023-02-07T10:14:09.542Z,32.50
2023-02-07T10:15:09.478Z,34.40
2023-02-07T10:16:09.540Z,35.30
2023-02-07T10:17:14.081Z,33.90
2023-02-07T10:18:10.446Z,37.00
2023-02-07T10:19:09.456Z,36.10
2023-02-07T10:20:09.418Z,35.60
2023-02-07T10:21:09.411Z,35.60
2023-02-07T10:22:09.407Z,33.40
2023-02-07T10:23:09.385Z,33.10
2023-02-07T10:24:09.445Z,35.50
2023-02-07T10:25:09.380Z,35.70
2023-02-07T10:26:09.360Z,35.20
2023-02-07T10:27:09.362Z,35.10
2023-02-07T10:28:09.464Z,33.60
2023-02-07T10:29:09.340Z,32.50
2023-02-07T10:30:09.347Z,33.10
2023-02-07T10:31:09.380Z,33.40
2023-02-07T10:32:09.301Z,33.30
2023-02-07T10:33:09.295Z,33.90
2023-02-07T10:34:09.284Z,36.10
2023-02-07T10:35:09.269Z,33.60
2023-02-07T10:36:09.246Z,32.90
2023-02-07T10:37:09.346Z,34.10
2023-02-07T10:38:09.230Z,35.00
2023-02-07T10:39:09.958Z,35.60
2023-02-07T10:40:09.215Z,34.40
2023-02-07T10:41:09.202Z,35.00
2023-02-07T10:42:09.195Z,35.00
2023-02-07T10:43:09.355Z,36.50
2023-02-07T10:44:09.177Z,33.80
2023-02-07T10:45:09.159Z,33.90
2023-02-07T10:46:09.182Z,34.10
2023-02-07T10:47:09.130Z,34.60
2023-02-07T10:48:09.152Z,33.00
2023-02-07T10:49:09.116Z,32.90
2023-02-07T10:50:10.462Z,32.60
2023-02-07T10:51:09.100Z,34.70
2023-02-07T10:52:09.078Z,32.10
2023-02-07T10:53:09.066Z,33.30
2023-02-07T10:54:09.154Z,35.70
2023-02-07T10:55:09.048Z,36.10
2023-02-07T10:56:09.031Z,34.90
2023-02-07T10:57:09.021Z,33.80
2023-02-07T10:58:22.347Z,31.80
2023-02-07T10:59:10.016Z,30.70
2023-02-07T11:00:08.989Z,29.70
2023-02-07T11:01:08.988Z,29.30
2023-02-07T11:02:10.050Z,29.80
2023-02-07T11:03:09.008Z,30.80
2023-02-07T11:04:08.965Z,31.80
2023-02-07T11:05:08.934Z,32.10
2023-02-07T11:06:08.932Z,32.10
2023-02-07T11:07:08.919Z,30.90
2023-02-07T11:08:10.158Z,31.60
2023-02-07T11:09:08.919Z,33.30
2023-02-07T11:10:08.884Z,32.50
2023-02-07T11:11:08.881Z,32.60
2023-02-07T11:12:08.865Z,32.50
2023-02-07T11:13:08.852Z,33.80
2023-02-07T11:14:08.866Z,33.00
2023-02-07T11:15:55.383Z,32.60
2023-02-07T11:21:01.816Z,32.80
2023-02-07T11:22:04.015Z,34.10
2023-02-07T11:23:00.635Z,34.00
2023-02-07T11:24:02.031Z,34.70
2023-02-07T11:25:03.137Z,34.60
2023-02-07T11:25:57.096Z,33.20
2023-02-07T11:26:57.088Z,34.60
2023-02-07T11:27:57.088Z,33.30
2023-02-07T11:28:57.086Z,42.50
2023-02-07T11:29:57.054Z,42.10
2023-02-07T11:30:57.090Z,40.70
2023-02-07T11:31:57.037Z,39.70
2023-02-07T11:32:57.054Z,40.00
2023-02-07T11:33:57.032Z,38.60
2023-02-07T11:34:57.042Z,37.40
2023-02-07T11:35:57.016Z,37.50
2023-02-07T11:36:56.982Z,35.10
2023-02-07T11:37:57.003Z,36.80
2023-02-07T11:38:57.052Z,36.10
2023-02-07T11:39:56.969Z,34.10
2023-02-07T11:40:56.955Z,34.20
2023-02-07T11:41:57.003Z,35.30
2023-02-07T11:42:56.922Z,35.00
2023-02-07T11:43:56.997Z,35.60
2023-02-07T11:44:57.021Z,35.60
2023-02-07T11:45:59.264Z,35.70
2023-02-07T11:46:56.894Z,36.50
2023-02-07T11:47:56.957Z,36.30
2023-02-07T11:48:56.931Z,36.60
2023-02-07T11:49:56.940Z,36.50
2023-02-07T11:50:56.839Z,35.60
2023-02-07T11:51:56.831Z,35.70
2023-02-07T11:52:58.635Z,35.30
2023-02-07T11:53:56.864Z,34.50
2023-02-07T11:54:56.845Z,34.70
2023-02-07T11:55:56.798Z,34.80
2023-02-07T11:56:56.774Z,33.20
2023-02-07T11:57:56.774Z,35.80
2023-02-07T11:58:56.762Z,34.90
2023-02-07T11:59:56.828Z,35.70
2023-02-07T12:00:56.735Z,35.00
2023-02-07T12:01:56.750Z,34.50
2023-02-07T12:02:56.705Z,36.00
2023-02-07T12:03:56.691Z,35.20
2023-02-07T12:04:56.723Z,36.20
2023-02-07T12:05:56.689Z,34.00
2023-02-07T12:06:56.671Z,35.10
2023-02-07T12:07:56.652Z,34.80
2023-02-07T12:08:56.650Z,34.10
2023-02-07T12:09:56.643Z,34.70
2023-02-07T12:10:56.625Z,34.50
2023-02-07T12:11:56.608Z,35.50
2023-02-07T12:12:56.597Z,34.60
2023-02-07T12:13:56.586Z,35.30
2023-02-07T12:14:56.604Z,34.00
2023-02-07T12:15:56.595Z,33.50
2023-02-07T12:16:56.599Z,34.50
2023-02-07T12:17:56.547Z,34.90
2023-02-07T12:18:56.568Z,34.70
2023-02-07T12:19:56.522Z,32.70
2023-02-07T12:20:56.533Z,33.70
2023-02-07T12:21:56.544Z,33.40
2023-02-07T12:23:07.786Z,34.30
2023-02-07T12:23:57.494Z,34.20
2023-02-07T12:24:56.501Z,33.20
2023-02-07T12:25:56.478Z,32.90
2023-02-07T12:26:56.487Z,32.20
2023-02-07T12:27:56.472Z,33.00
2023-02-07T12:29:11.056Z,32.50
2023-02-07T12:29:57.455Z,33.30
2023-02-07T12:30:56.526Z,32.50
2023-02-07T12:31:56.524Z,32.50
2023-02-07T12:32:56.452Z,34.20
2023-02-07T12:33:56.394Z,33.00
2023-02-07T12:34:56.399Z,32.30
2023-02-07T12:35:57.745Z,32.40
2023-02-07T12:36:56.358Z,33.70
2023-02-07T12:37:56.356Z,32.10
2023-02-07T12:38:56.330Z,31.90
2023-02-07T12:39:56.421Z,33.20
2023-02-07T12:40:56.376Z,34.10
2023-02-07T12:41:56.296Z,32.90
2023-02-07T12:42:56.334Z,32.60
2023-02-07T12:43:56.279Z,31.80
2023-02-07T12:44:56.285Z,32.50
2023-02-07T12:45:56.312Z,33.50
2023-02-07T12:46:56.246Z,32.70
2023-02-07T12:47:56.225Z,33.40
2023-02-07T12:48:56.263Z,32.70
2023-02-07T12:49:56.319Z,32.90
2023-02-07T12:50:56.212Z,34.30
2023-02-07T12:51:56.197Z,34.20
2023-02-07T12:52:56.186Z,33.10
2023-02-07T12:53:56.182Z,31.50
2023-02-07T12:54:56.167Z,30.20
2023-02-07T12:55:56.156Z,31.80
2023-02-07T12:56:56.135Z,30.80